sensor_id;sensor_type;location;lat;lon;timestamp;pressure;altitude;pressure_sealevel;temperature;humidity
56681;BME280;42558;52.388;13.390;2023-05-23T00:00:21;100727.02;;;15.63;61.55
56681;BME280;42558;52.388;13.390;2023-05-23T00:02:51;100724.21;;;15.56;61.46
56681;BME280;42558;52.388;13.390;2023-05-23T00:05:21;100719.46;;;15.50;62.30
56681;BME280;42558;52.388;13.390;2023-05-23T00:07:51;100715.80;;;15.43;62.36
56681;BME280;42558;52.388;13.390;2023-05-23T00:10:21;100712.30;;;15.34;62.95
56681;BME280;42558;52.388;13.390;2023-05-23T00:12:51;100708.63;;;15.28;62.47
56681;BME280;42558;52.388;13.390;2023-05-23T00:15:22;100706.70;;;15.26;62.75
56681;BME280;42558;52.388;13.390;2023-05-23T00:17:51;100703.38;;;15.21;62.56
56681;BME280;42558;52.388;13.390;2023-05-23T00:20:21;100701.27;;;15.19;62.79
56681;BME280;42558;52.388;13.390;2023-05-23T00:22:51;100704.31;;;15.13;63.01
56681;BME280;42558;52.388;13.390;2023-05-23T00:25:24;100698.84;;;15.08;62.46
56681;BME280;42558;52.388;13.390;2023-05-23T00:27:54;100697.05;;;15.10;62.03
56681;BME280;42558;52.388;13.390;2023-05-23T00:30:23;100690.86;;;15.13;61.94
56681;BME280;42558;52.388;13.390;2023-05-23T00:32:54;100693.70;;;15.12;62.13
56681;BME280;42558;52.388;13.390;2023-05-23T00:35:22;100697.04;;;15.14;62.30
56681;BME280;42558;52.388;13.390;2023-05-23T00:37:51;100691.33;;;15.21;62.00
56681;BME280;42558;52.388;13.390;2023-05-23T00:40:19;100687.14;;;15.13;61.81
56681;BME280;42558;52.388;13.390;2023-05-23T00:42:48;100679.19;;;15.09;61.78
56681;BME280;42558;52.388;13.390;2023-05-23T00:45:16;100683.99;;;15.04;62.15
56681;BME280;42558;52.388;13.390;2023-05-23T00:47:45;100689.30;;;15.03;61.97
56681;BME280;42558;52.388;13.390;2023-05-23T00:50:16;100686.14;;;15.01;62.09
56681;BME280;42558;52.388;13.390;2023-05-23T00:52:45;100678.70;;;15.00;62.55
56681;BME280;42558;52.388;13.390;2023-05-23T00:55:16;100679.08;;;14.97;62.27
56681;BME280;42558;52.388;13.390;2023-05-23T00:57:46;100676.27;;;14.92;62.13
56681;BME280;42558;52.388;13.390;2023-05-23T01:00:17;100669.73;;;14.90;62.20
56681;BME280;42558;52.388;13.390;2023-05-23T01:02:49;100664.46;;;14.84;62.63
56681;BME280;42558;52.388;13.390;2023-05-23T01:05:20;100662.01;;;14.79;62.68
56681;BME280;42558;52.388;13.390;2023-05-23T01:07:53;100660.23;;;14.81;62.50
56681;BME280;42558;52.388;13.390;2023-05-23T01:10:29;100659.00;;;14.80;62.50
56681;BME280;42558;52.388;13.390;2023-05-23T01:13:32;100653.83;;;14.85;62.23
56681;BME280;42558;52.388;13.390;2023-05-23T01:16:13;100660.05;;;14.82;62.65
56681;BME280;42558;52.388;13.390;2023-05-23T01:18:56;100660.03;;;14.84;62.43
56681;BME280;42558;52.388;13.390;2023-05-23T01:21:28;100662.70;;;14.85;62.29
56681;BME280;42558;52.388;13.390;2023-05-23T01:24:35;100662.70;;;14.81;62.41
56681;BME280;42558;52.388;13.390;2023-05-23T01:30:18;100663.75;;;14.83;62.92
56681;BME280;42558;52.388;13.390;2023-05-23T01:32:52;100664.65;;;14.81;63.41
56681;BME280;42558;52.388;13.390;2023-05-23T01:35:25;100663.95;;;14.81;63.08
56681;BME280;42558;52.388;13.390;2023-05-23T01:37:56;100659.53;;;14.78;63.69
56681;BME280;42558;52.388;13.390;2023-05-23T01:40:26;100657.95;;;14.75;64.45
56681;BME280;42558;52.388;13.390;2023-05-23T01:42:57;100653.37;;;14.70;64.62
56681;BME280;42558;52.388;13.390;2023-05-23T01:45:27;100644.34;;;14.70;64.20
56681;BME280;42558;52.388;13.390;2023-05-23T01:47:58;100644.70;;;14.74;64.18
56681;BME280;42558;52.388;13.390;2023-05-23T01:50:31;100638.67;;;14.75;64.00
56681;BME280;42558;52.388;13.390;2023-05-23T01:53:01;100638.14;;;14.74;64.06
56681;BME280;42558;52.388;13.390;2023-05-23T01:55:31;100635.66;;;14.75;63.92
56681;BME280;42558;52.388;13.390;2023-05-23T01:58:02;100642.56;;;14.75;64.24
56681;BME280;42558;52.388;13.390;2023-05-23T02:00:32;100647.00;;;14.72;64.84
56681;BME280;42558;52.388;13.390;2023-05-23T02:03:02;100648.06;;;14.70;64.69
56681;BME280;42558;52.388;13.390;2023-05-23T02:05:32;100653.73;;;14.71;65.32
56681;BME280;42558;52.388;13.390;2023-05-23T02:08:02;100656.55;;;14.73;65.37
56681;BME280;42558;52.388;13.390;2023-05-23T02:10:32;100658.13;;;14.75;65.44
56681;BME280;42558;52.388;13.390;2023-05-23T02:13:02;100659.18;;;14.76;66.90
56681;BME280;42558;52.388;13.390;2023-05-23T02:15:33;100656.38;;;14.73;67.74
56681;BME280;42558;52.388;13.390;2023-05-23T02:18:03;100655.70;;;14.65;67.78
56681;BME280;42558;52.388;13.390;2023-05-23T02:20:34;100644.42;;;14.58;69.03
56681;BME280;42558;52.388;13.390;2023-05-23T02:23:02;100636.67;;;14.52;69.55
56681;BME280;42558;52.388;13.390;2023-05-23T02:25:31;100634.19;;;14.51;68.87
56681;BME280;42558;52.388;13.390;2023-05-23T02:27:59;100637.55;;;14.51;69.49
56681;BME280;42558;52.388;13.390;2023-05-23T02:30:28;100637.20;;;14.48;69.97
56681;BME280;42558;52.388;13.390;2023-05-23T02:32:56;100634.38;;;14.48;69.89
56681;BME280;42558;52.388;13.390;2023-05-23T02:35:24;100636.32;;;14.48;70.36
56681;BME280;42558;52.388;13.390;2023-05-23T02:37:53;100638.98;;;14.46;69.49
56681;BME280;42558;52.388;13.390;2023-05-23T02:40:22;100636.84;;;14.51;68.91
56681;BME280;42558;52.388;13.390;2023-05-23T02:42:50;100636.32;;;14.52;69.77
56681;BME280;42558;52.388;13.390;2023-05-23T02:45:19;100633.66;;;14.51;69.99
56681;BME280;42558;52.388;13.390;2023-05-23T02:47:47;100634.02;;;14.52;69.53
56681;BME280;42558;52.388;13.390;2023-05-23T02:50:16;100629.06;;;14.52;70.58
56681;BME280;42558;52.388;13.390;2023-05-23T02:52:44;100629.77;;;14.51;71.17
56681;BME280;42558;52.388;13.390;2023-05-23T02:55:12;100629.77;;;14.50;69.64
56681;BME280;42558;52.388;13.390;2023-05-23T02:57:41;100637.17;;;14.55;68.54
56681;BME280;42558;52.388;13.390;2023-05-23T03:00:10;100637.70;;;14.58;68.94
56681;BME280;42558;52.388;13.390;2023-05-23T03:02:38;100643.33;;;14.62;69.58
56681;BME280;42558;52.388;13.390;2023-05-23T03:05:07;100641.56;;;14.62;70.68
56681;BME280;42558;52.388;13.390;2023-05-23T03:07:35;100641.59;;;14.58;72.04
56681;BME280;42558;52.388;13.390;2023-05-23T03:10:04;100641.61;;;14.54;70.26
56681;BME280;42558;52.388;13.390;2023-05-23T03:12:32;100642.83;;;14.56;69.72
56681;BME280;42558;52.388;13.390;2023-05-23T03:15:00;100647.95;;;14.57;70.98
56681;BME280;42558;52.388;13.390;2023-05-23T03:17:29;100654.67;;;14.58;71.23
56681;BME280;42558;52.388;13.390;2023-05-23T03:19:57;100663.16;;;14.56;72.00
56681;BME280;42558;52.388;13.390;2023-05-23T03:22:26;100662.30;;;14.54;72.35
56681;BME280;42558;52.388;13.390;2023-05-23T03:24:55;100656.13;;;14.52;72.41
56681;BME280;42558;52.388;13.390;2023-05-23T03:27:23;100646.92;;;14.49;72.57
56681;BME280;42558;52.388;13.390;2023-05-23T03:29:51;100641.28;;;14.47;73.88
56681;BME280;42558;52.388;13.390;2023-05-23T03:32:20;100639.67;;;14.45;73.12
56681;BME280;42558;52.388;13.390;2023-05-23T03:34:48;100632.96;;;14.47;74.61
56681;BME280;42558;52.388;13.390;2023-05-23T03:37:17;100630.13;;;14.45;75.47
56681;BME280;42558;52.388;13.390;2023-05-23T03:39:46;100624.11;;;14.46;74.75
56681;BME280;42558;52.388;13.390;2023-05-23T03:42:14;100620.04;;;14.49;75.24
56681;BME280;42558;52.388;13.390;2023-05-23T03:44:43;100615.80;;;14.48;75.50
56681;BME280;42558;52.388;13.390;2023-05-23T03:47:12;100613.48;;;14.50;74.59
56681;BME280;42558;52.388;13.390;2023-05-23T03:49:40;100611.52;;;14.55;74.30
56681;BME280;42558;52.388;13.390;2023-05-23T03:52:08;100601.95;;;14.58;72.59
56681;BME280;42558;52.388;13.390;2023-05-23T03:54:37;100593.42;;;14.63;71.00
56681;BME280;42558;52.388;13.390;2023-05-23T03:57:05;100589.68;;;14.68;69.85
56681;BME280;42558;52.388;13.390;2023-05-23T03:59:35;100583.84;;;14.70;69.56
56681;BME280;42558;52.388;13.390;2023-05-23T04:02:02;100585.58;;;14.71;69.71
56681;BME280;42558;52.388;13.390;2023-05-23T04:04:31;100589.98;;;14.79;67.96
56681;BME280;42558;52.388;13.390;2023-05-23T04:06:59;100604.43;;;14.87;67.16
56681;BME280;42558;52.388;13.390;2023-05-23T04:09:28;100623.52;;;14.90;67.17
56681;BME280;42558;52.388;13.390;2023-05-23T04:11:57;100638.04;;;14.93;67.55
56681;BME280;42558;52.388;13.390;2023-05-23T04:14:24;100643.17;;;14.90;68.74
56681;BME280;42558;52.388;13.390;2023-05-23T04:16:53;100643.57;;;14.83;70.68
56681;BME280;42558;52.388;13.390;2023-05-23T04:19:22;100638.83;;;14.79;71.65
56681;BME280;42558;52.388;13.390;2023-05-23T04:21:50;100642.90;;;14.75;71.84
56681;BME280;42558;52.388;13.390;2023-05-23T04:24:18;100635.86;;;14.72;72.38
56681;BME280;42558;52.388;13.390;2023-05-23T04:26:47;100631.08;;;14.70;74.00
56681;BME280;42558;52.388;13.390;2023-05-23T04:29:16;100631.45;;;14.68;73.50
56681;BME280;42558;52.388;13.390;2023-05-23T04:31:44;100624.89;;;14.69;74.19
56681;BME280;42558;52.388;13.390;2023-05-23T04:34:13;100625.77;;;14.72;73.22
56681;BME280;42558;52.388;13.390;2023-05-23T04:36:41;100628.61;;;14.69;73.76
56681;BME280;42558;52.388;13.390;2023-05-23T04:39:13;100626.48;;;14.72;73.92
56681;BME280;42558;52.388;13.390;2023-05-23T04:41:44;100622.89;;;14.77;76.30
56681;BME280;42558;52.388;13.390;2023-05-23T04:44:13;100618.48;;;14.76;76.91
56681;BME280;42558;52.388;13.390;2023-05-23T04:46:44;100619.71;;;14.77;75.69
56681;BME280;42558;52.388;13.390;2023-05-23T04:49:15;100620.78;;;14.78;76.23
56681;BME280;42558;52.388;13.390;2023-05-23T04:51:45;100622.73;;;14.79;76.75
56681;BME280;42558;52.388;13.390;2023-05-23T04:54:15;100627.84;;;14.78;77.57
56681;BME280;42558;52.388;13.390;2023-05-23T04:56:45;100629.63;;;14.76;77.52
56681;BME280;42558;52.388;13.390;2023-05-23T04:59:15;100636.20;;;14.74;77.23
56681;BME280;42558;52.388;13.390;2023-05-23T05:01:45;100632.48;;;14.73;77.20
56681;BME280;42558;52.388;13.390;2023-05-23T05:04:15;100626.83;;;14.72;77.12
56681;BME280;42558;52.388;13.390;2023-05-23T05:06:45;100623.47;;;14.71;77.99
56681;BME280;42558;52.388;13.390;2023-05-23T05:09:16;100624.00;;;14.69;79.07
56681;BME280;42558;52.388;13.390;2023-05-23T05:11:46;100624.20;;;14.65;80.32
56681;BME280;42558;52.388;13.390;2023-05-23T05:14:16;100626.73;;;14.58;81.45
56681;BME280;42558;52.388;13.390;2023-05-23T05:16:45;100627.08;;;14.57;82.05
56681;BME280;42558;52.388;13.390;2023-05-23T05:19:17;100624.74;;;14.62;81.88
56681;BME280;42558;52.388;13.390;2023-05-23T05:21:47;100619.24;;;14.67;82.20
56681;BME280;42558;52.388;13.390;2023-05-23T05:24:17;100617.98;;;14.71;82.22
56681;BME280;42558;52.388;13.390;2023-05-23T05:26:49;100621.34;;;14.73;82.61
56681;BME280;42558;52.388;13.390;2023-05-23T05:29:19;100627.70;;;14.69;83.05
56681;BME280;42558;52.388;13.390;2023-05-23T05:31:49;100632.86;;;14.69;82.97
56681;BME280;42558;52.388;13.390;2023-05-23T05:34:19;100629.48;;;14.69;83.21
56681;BME280;42558;52.388;13.390;2023-05-23T05:36:49;100640.13;;;14.68;83.35
56681;BME280;42558;52.388;13.390;2023-05-23T05:39:23;100642.25;;;14.68;83.27
56681;BME280;42558;52.388;13.390;2023-05-23T05:41:54;100643.81;;;14.70;84.07
56681;BME280;42558;52.388;13.390;2023-05-23T05:44:24;100645.05;;;14.70;84.61
56681;BME280;42558;52.388;13.390;2023-05-23T05:46:54;100644.02;;;14.64;84.28
56681;BME280;42558;52.388;13.390;2023-05-23T05:49:24;100648.81;;;14.65;84.74
56681;BME280;42558;52.388;13.390;2023-05-23T05:51:54;100646.50;;;14.66;85.93
56681;BME280;42558;52.388;13.390;2023-05-23T05:54:24;100645.09;;;14.65;86.12
56681;BME280;42558;52.388;13.390;2023-05-23T05:56:54;100645.98;;;14.64;84.75
56681;BME280;42558;52.388;13.390;2023-05-23T05:59:21;100645.27;;;14.64;84.15
56681;BME280;42558;52.388;13.390;2023-05-23T06:01:50;100640.83;;;14.68;84.99
56681;BME280;42558;52.388;13.390;2023-05-23T06:04:18;100635.87;;;14.68;86.35
56681;BME280;42558;52.388;13.390;2023-05-23T06:06:46;100628.42;;;14.73;86.09
56681;BME280;42558;52.388;13.390;2023-05-23T06:09:15;100630.52;;;14.77;84.46
56681;BME280;42558;52.388;13.390;2023-05-23T06:11:43;100633.11;;;14.86;85.40
56681;BME280;42558;52.388;13.390;2023-05-23T06:14:11;100628.32;;;14.89;85.54
56681;BME280;42558;52.388;13.390;2023-05-23T06:16:40;100625.98;;;14.95;85.14
56681;BME280;42558;52.388;13.390;2023-05-23T06:19:08;100629.29;;;15.03;84.26
56681;BME280;42558;52.388;13.390;2023-05-23T06:21:37;100625.55;;;15.06;82.48
56681;BME280;42558;52.388;13.390;2023-05-23T06:24:05;100623.93;;;15.11;81.13
56681;BME280;42558;52.388;13.390;2023-05-23T06:26:34;100620.23;;;15.07;79.51
56681;BME280;42558;52.388;13.390;2023-05-23T06:29:05;100625.88;;;15.09;79.04
56681;BME280;42558;52.388;13.390;2023-05-23T06:31:33;100633.05;;;15.21;78.15
56681;BME280;42558;52.388;13.390;2023-05-23T06:34:02;100635.23;;;15.38;78.67
56681;BME280;42558;52.388;13.390;2023-05-23T06:36:30;100636.39;;;15.47;78.72
56681;BME280;42558;52.388;13.390;2023-05-23T06:38:59;100639.16;;;15.53;79.46
56681;BME280;42558;52.388;13.390;2023-05-23T06:41:27;100636.94;;;15.68;79.99
56681;BME280;42558;52.388;13.390;2023-05-23T06:43:55;100642.58;;;15.91;78.49
56681;BME280;42558;52.388;13.390;2023-05-23T06:46:24;100641.30;;;16.41;78.24
56681;BME280;42558;52.388;13.390;2023-05-23T06:48:51;100640.89;;;16.76;73.71
56681;BME280;42558;52.388;13.390;2023-05-23T06:51:41;100634.06;;;17.16;73.06
56681;BME280;42558;52.388;13.390;2023-05-23T06:54:09;100628.50;;;17.83;67.64
56681;BME280;42558;52.388;13.390;2023-05-23T06:56:38;100621.41;;;18.03;59.78
56681;BME280;42558;52.388;13.390;2023-05-23T06:59:06;100620.82;;;18.40;61.04
56681;BME280;42558;52.388;13.390;2023-05-23T07:01:36;100615.45;;;19.22;58.42
56681;BME280;42558;52.388;13.390;2023-05-23T07:04:06;100612.58;;;19.08;59.01
56681;BME280;42558;52.388;13.390;2023-05-23T07:06:36;100617.30;;;19.12;59.17
56681;BME280;42558;52.388;13.390;2023-05-23T07:09:06;100613.66;;;19.00;57.14
56681;BME280;42558;52.388;13.390;2023-05-23T07:11:36;100616.38;;;19.21;58.51
56681;BME280;42558;52.388;13.390;2023-05-23T07:14:08;100610.13;;;19.57;56.62
56681;BME280;42558;52.388;13.390;2023-05-23T07:16:37;100610.55;;;19.83;56.58
56681;BME280;42558;52.388;13.390;2023-05-23T07:19:08;100615.60;;;19.67;57.63
56681;BME280;42558;52.388;13.390;2023-05-23T07:21:38;100616.85;;;19.93;57.17
56681;BME280;42558;52.388;13.390;2023-05-23T07:24:08;100615.31;;;19.64;57.95
56681;BME280;42558;52.388;13.390;2023-05-23T07:26:37;100620.50;;;19.84;57.53
56681;BME280;42558;52.388;13.390;2023-05-23T07:29:07;100614.81;;;20.53;54.44
56681;BME280;42558;52.388;13.390;2023-05-23T07:31:37;100612.06;;;20.05;53.95
56681;BME280;42558;52.388;13.390;2023-05-23T07:34:07;100616.38;;;20.23;54.62
56681;BME280;42558;52.388;13.390;2023-05-23T07:36:37;100605.93;;;20.81;53.00
56681;BME280;42558;52.388;13.390;2023-05-23T07:39:09;100607.52;;;20.33;52.13
56681;BME280;42558;52.388;13.390;2023-05-23T07:41:39;100610.09;;;19.72;53.53
56681;BME280;42558;52.388;13.390;2023-05-23T07:44:09;100608.15;;;19.65;54.13
56681;BME280;42558;52.388;13.390;2023-05-23T07:46:39;100607.35;;;20.07;53.44
56681;BME280;42558;52.388;13.390;2023-05-23T07:49:09;100608.83;;;20.37;52.74
56681;BME280;42558;52.388;13.390;2023-05-23T07:51:39;100605.35;;;19.69;52.75
56681;BME280;42558;52.388;13.390;2023-05-23T07:54:10;100609.42;;;19.42;54.10
56681;BME280;42558;52.388;13.390;2023-05-23T07:56:42;100609.05;;;19.85;54.35
56681;BME280;42558;52.388;13.390;2023-05-23T07:59:12;100612.50;;;19.83;53.79
56681;BME280;42558;52.388;13.390;2023-05-23T08:01:42;100620.73;;;19.68;54.60
56681;BME280;42558;52.388;13.390;2023-05-23T08:04:13;100624.01;;;19.58;55.56
56681;BME280;42558;52.388;13.390;2023-05-23T08:06:43;100627.65;;;19.96;56.70
56681;BME280;42558;52.388;13.390;2023-05-23T08:09:33;100631.11;;;20.20;56.01
56681;BME280;42558;52.388;13.390;2023-05-23T08:12:04;100631.70;;;20.17;56.26
56681;BME280;42558;52.388;13.390;2023-05-23T08:14:37;100635.11;;;20.11;56.38
56681;BME280;42558;52.388;13.390;2023-05-23T08:17:19;100633.55;;;20.47;56.07
56681;BME280;42558;52.388;13.390;2023-05-23T08:19:50;100630.30;;;20.42;56.45
56681;BME280;42558;52.388;13.390;2023-05-23T08:22:20;100635.27;;;20.12;57.59
56681;BME280;42558;52.388;13.390;2023-05-23T08:24:50;100639.95;;;20.10;58.69
56681;BME280;42558;52.388;13.390;2023-05-23T08:27:20;100639.41;;;20.23;58.11
56681;BME280;42558;52.388;13.390;2023-05-23T08:29:49;100642.73;;;20.51;59.23
56681;BME280;42558;52.388;13.390;2023-05-23T08:32:19;100645.52;;;20.53;58.25
56681;BME280;42558;52.388;13.390;2023-05-23T08:34:49;100646.67;;;20.25;59.48
56681;BME280;42558;52.388;13.390;2023-05-23T08:37:19;100644.73;;;20.98;57.14
56681;BME280;42558;52.388;13.390;2023-05-23T08:39:49;100642.48;;;21.29;56.62
56681;BME280;42558;52.388;13.390;2023-05-23T08:42:20;100642.74;;;21.60;55.42
56681;BME280;42558;52.388;13.390;2023-05-23T08:44:51;100649.19;;;21.09;57.30
56681;BME280;42558;52.388;13.390;2023-05-23T08:47:21;100656.92;;;20.48;58.91
56681;BME280;42558;52.388;13.390;2023-05-23T08:49:54;100662.15;;;20.14;60.41
56681;BME280;42558;52.388;13.390;2023-05-23T08:52:29;100663.92;;;19.95;62.07
56681;BME280;42558;52.388;13.390;2023-05-23T08:55:00;100663.54;;;20.95;60.97
56681;BME280;42558;52.388;13.390;2023-05-23T08:57:32;100668.73;;;21.19;58.77
56681;BME280;42558;52.388;13.390;2023-05-23T09:00:04;100664.50;;;21.06;59.48
56681;BME280;42558;52.388;13.390;2023-05-23T09:02:38;100669.20;;;21.15;60.10
56681;BME280;42558;52.388;13.390;2023-05-23T09:05:06;100670.88;;;21.19;60.81
56681;BME280;42558;52.388;13.390;2023-05-23T09:07:38;100675.91;;;21.13;60.97
56681;BME280;42558;52.388;13.390;2023-05-23T09:10:07;100676.68;;;21.28;59.78
56681;BME280;42558;52.388;13.390;2023-05-23T09:12:38;100674.58;;;21.33;60.16
56681;BME280;42558;52.388;13.390;2023-05-23T09:15:09;100680.91;;;21.30;60.18
56681;BME280;42558;52.388;13.390;2023-05-23T09:17:40;100680.98;;;21.56;60.04
56681;BME280;42558;52.388;13.390;2023-05-23T09:20:14;100686.86;;;21.45;60.03
56681;BME280;42558;52.388;13.390;2023-05-23T09:22:47;100686.94;;;21.26;60.69
56681;BME280;42558;52.388;13.390;2023-05-23T09:25:15;100684.71;;;21.51;61.02
56681;BME280;42558;52.388;13.390;2023-05-23T09:27:44;100683.83;;;22.04;59.14
56681;BME280;42558;52.388;13.390;2023-05-23T09:30:17;100687.46;;;21.55;59.95
56681;BME280;42558;52.388;13.390;2023-05-23T09:32:58;100694.98;;;20.73;62.05
56681;BME280;42558;52.388;13.390;2023-05-23T09:35:34;100696.02;;;20.49;63.61
56681;BME280;42558;52.388;13.390;2023-05-23T09:38:07;100697.65;;;20.02;67.01
56681;BME280;42558;52.388;13.390;2023-05-23T09:40:37;100702.69;;;20.13;67.70
56681;BME280;42558;52.388;13.390;2023-05-23T09:43:07;100698.79;;;19.72;70.20
56681;BME280;42558;52.388;13.390;2023-05-23T09:45:37;100703.13;;;19.90;70.42
56681;BME280;42558;52.388;13.390;2023-05-23T09:48:11;100708.56;;;19.73;71.15
56681;BME280;42558;52.388;13.390;2023-05-23T09:50:45;100711.52;;;19.69;72.07
56681;BME280;42558;52.388;13.390;2023-05-23T09:53:15;100713.81;;;19.70;72.49
56681;BME280;42558;52.388;13.390;2023-05-23T09:55:47;100712.04;;;19.69;73.29
56681;BME280;42558;52.388;13.390;2023-05-23T09:58:19;100710.68;;;19.73;73.64
56681;BME280;42558;52.388;13.390;2023-05-23T10:00:50;100708.72;;;19.73;73.86
56681;BME280;42558;52.388;13.390;2023-05-23T10:03:36;100712.26;;;19.37;75.64
56681;BME280;42558;52.388;13.390;2023-05-23T10:06:31;100715.06;;;19.39;76.49
56681;BME280;42558;52.388;13.390;2023-05-23T10:09:04;100713.52;;;19.21;77.07
56681;BME280;42558;52.388;13.390;2023-05-23T10:14:12;100712.34;;;19.49;76.78
56681;BME280;42558;52.388;13.390;2023-05-23T10:16:54;100710.79;;;19.90;77.22
56681;BME280;42558;52.388;13.390;2023-05-23T10:19:59;100709.86;;;20.71;73.40
56681;BME280;42558;52.388;13.390;2023-05-23T10:22:38;100708.20;;;20.67;72.35
56681;BME280;42558;52.388;13.390;2023-05-23T10:25:09;100709.89;;;20.11;73.48
56681;BME280;42558;52.388;13.390;2023-05-23T10:27:39;100714.13;;;19.56;76.68
56681;BME280;42558;52.388;13.390;2023-05-23T10:30:08;100714.79;;;19.66;77.08
56681;BME280;42558;52.388;13.390;2023-05-23T10:32:38;100724.95;;;19.34;78.50
56681;BME280;42558;52.388;13.390;2023-05-23T10:35:41;100728.19;;;18.67;81.64
56681;BME280;42558;52.388;13.390;2023-05-23T10:38:40;100724.73;;;18.52;83.85
56681;BME280;42558;52.388;13.390;2023-05-23T10:41:22;100722.39;;;18.63;84.49
56681;BME280;42558;52.388;13.390;2023-05-23T10:44:30;100727.43;;;18.70;83.89
56681;BME280;42558;52.388;13.390;2023-05-23T10:47:03;100727.36;;;18.64;84.43
56681;BME280;42558;52.388;13.390;2023-05-23T10:49:44;100729.85;;;18.91;83.99
56681;BME280;42558;52.388;13.390;2023-05-23T10:52:17;100730.42;;;18.89;83.66
56681;BME280;42558;52.388;13.390;2023-05-23T10:54:52;100734.72;;;18.88;83.57
56681;BME280;42558;52.388;13.390;2023-05-23T10:57:25;100731.30;;;18.72;83.48
56681;BME280;42558;52.388;13.390;2023-05-23T10:59:57;100738.09;;;18.72;84.01
56681;BME280;42558;52.388;13.390;2023-05-23T11:02:28;100735.23;;;18.34;85.14
56681;BME280;42558;52.388;13.390;2023-05-23T11:08:10;100746.60;;;18.16;85.20
56681;BME280;42558;52.388;13.390;2023-05-23T11:10:59;100749.78;;;18.08;86.41
56681;BME280;42558;52.388;13.390;2023-05-23T11:13:57;100753.02;;;18.15;86.64
56681;BME280;42558;52.388;13.390;2023-05-23T11:16:29;100751.50;;;18.10;85.91
56681;BME280;42558;52.388;13.390;2023-05-23T11:19:31;100753.34;;;17.86;86.44
56681;BME280;42558;52.388;13.390;2023-05-23T11:22:01;100762.99;;;17.58;89.01
56681;BME280;42558;52.388;13.390;2023-05-23T11:24:54;100758.08;;;17.79;88.30
56681;BME280;42558;52.388;13.390;2023-05-23T11:27:39;100762.33;;;17.68;87.19
56681;BME280;42558;52.388;13.390;2023-05-23T11:30:16;100757.29;;;17.48;88.32
56681;BME280;42558;52.388;13.390;2023-05-23T11:32:53;100758.08;;;17.66;88.24
56681;BME280;42558;52.388;13.390;2023-05-23T11:35:25;100750.48;;;17.75;86.60
56681;BME280;42558;52.388;13.390;2023-05-23T11:37:56;100754.42;;;17.61;87.03
56681;BME280;42558;52.388;13.390;2023-05-23T11:40:41;100751.21;;;17.62;86.94
56681;BME280;42558;52.388;13.390;2023-05-23T11:43:15;100758.96;;;17.42;87.24
56681;BME280;42558;52.388;13.390;2023-05-23T11:45:46;100756.02;;;17.50;87.38
56681;BME280;42558;52.388;13.390;2023-05-23T11:48:16;100759.15;;;17.42;87.30
56681;BME280;42558;52.388;13.390;2023-05-23T11:50:52;100762.53;;;17.41;87.08
56681;BME280;42558;52.388;13.390;2023-05-23T11:53:27;100762.11;;;17.21;88.24
56681;BME280;42558;52.388;13.390;2023-05-23T11:55:57;100763.22;;;17.18;88.21
56681;BME280;42558;52.388;13.390;2023-05-23T11:58:34;100767.64;;;17.20;88.59
56681;BME280;42558;52.388;13.390;2023-05-23T12:01:10;100770.59;;;17.24;89.44
56681;BME280;42558;52.388;13.390;2023-05-23T12:03:49;100771.45;;;17.39;90.12
56681;BME280;42558;52.388;13.390;2023-05-23T12:06:21;100775.02;;;17.38;90.18
56681;BME280;42558;52.388;13.390;2023-05-23T12:08:53;100774.07;;;17.31;90.54
56681;BME280;42558;52.388;13.390;2023-05-23T12:11:23;100774.58;;;17.19;90.27
56681;BME280;42558;52.388;13.390;2023-05-23T12:13:55;100773.88;;;17.18;90.91
56681;BME280;42558;52.388;13.390;2023-05-23T12:16:27;100771.59;;;17.29;90.82
56681;BME280;42558;52.388;13.390;2023-05-23T12:18:58;100774.96;;;17.30;91.51
56681;BME280;42558;52.388;13.390;2023-05-23T12:24:20;100779.81;;;17.25;93.09
56681;BME280;42558;52.388;13.390;2023-05-23T12:26:57;100780.34;;;17.39;92.90
56681;BME280;42558;52.388;13.390;2023-05-23T12:29:33;100780.90;;;17.37;92.99
56681;BME280;42558;52.388;13.390;2023-05-23T12:32:06;100783.02;;;17.38;92.17
56681;BME280;42558;52.388;13.390;2023-05-23T12:34:40;100785.92;;;17.20;90.67
56681;BME280;42558;52.388;13.390;2023-05-23T12:37:12;100784.52;;;17.20;89.97
56681;BME280;42558;52.388;13.390;2023-05-23T12:39:46;100785.46;;;17.15;89.74
56681;BME280;42558;52.388;13.390;2023-05-23T12:42:16;100786.01;;;17.14;89.58
56681;BME280;42558;52.388;13.390;2023-05-23T12:44:50;100786.95;;;17.10;89.47
56681;BME280;42558;52.388;13.390;2023-05-23T12:47:20;100788.49;;;17.00;89.04
56681;BME280;42558;52.388;13.390;2023-05-23T12:49:50;100786.95;;;16.96;90.27
56681;BME280;42558;52.388;13.390;2023-05-23T12:52:20;100789.14;;;16.91;89.85
56681;BME280;42558;52.388;13.390;2023-05-23T12:54:51;100790.42;;;16.88;90.67
56681;BME280;42558;52.388;13.390;2023-05-23T12:57:20;100791.64;;;16.89;93.84
56681;BME280;42558;52.388;13.390;2023-05-23T12:59:49;100789.76;;;16.84;96.20
56681;BME280;42558;52.388;13.390;2023-05-23T13:02:18;100782.39;;;17.05;95.83
56681;BME280;42558;52.388;13.390;2023-05-23T13:04:49;100787.11;;;17.38;94.47
56681;BME280;42558;52.388;13.390;2023-05-23T13:07:19;100788.59;;;17.47;92.61
56681;BME280;42558;52.388;13.390;2023-05-23T13:09:49;100791.55;;;17.50;91.84
56681;BME280;42558;52.388;13.390;2023-05-23T13:12:19;100783.45;;;17.71;88.42
56681;BME280;42558;52.388;13.390;2023-05-23T13:14:50;100782.91;;;17.83;86.83